createdAt,value
2018-10-16T00:01:31.923Z,101417.20
2018-10-16T00:04:02.606Z,101425.39
2018-10-16T00:06:33.376Z,101421.36
2018-10-16T00:09:04.068Z,101432.59
2018-10-16T00:11:34.745Z,101427.43
2018-10-16T00:14:05.442Z,101428.16
2018-10-16T00:16:36.106Z,101427.66
2018-10-16T00:19:06.832Z,101432.59
2018-10-16T00:21:37.777Z,101431.53
2018-10-16T00:24:08.456Z,101431.84
2018-10-16T00:26:39.515Z,101426.94
2018-10-16T00:29:10.180Z,101436.95
2018-10-16T00:31:40.865Z,101435.63
2018-10-16T00:34:11.481Z,101438.38
2018-10-16T00:36:42.322Z,101437.79
2018-10-16T00:39:14.527Z,101438.48
2018-10-16T00:41:45.270Z,101429.05
2018-10-16T00:44:15.868Z,101438.06
2018-10-16T00:46:46.563Z,101435.12
2018-10-16T00:49:17.178Z,101439.05
2018-10-16T00:51:47.921Z,101449.50
2018-10-16T00:54:18.570Z,101447.26
2018-10-16T00:56:49.256Z,101443.09
2018-10-16T00:59:19.850Z,101442.16
2018-10-16T01:01:50.515Z,101441.56
2018-10-16T01:04:21.540Z,101447.09
2018-10-16T01:06:52.560Z,101440.81
2018-10-16T01:09:23.288Z,101442.98
2018-10-16T01:11:53.940Z,101445.55
2018-10-16T01:14:24.580Z,101445.55
2018-10-16T01:16:55.697Z,101445.25
2018-10-16T01:19:26.339Z,101443.59
2018-10-16T01:21:57.382Z,101439.08
2018-10-16T01:24:28.310Z,101443.28
2018-10-16T01:26:59.024Z,101444.49
2018-10-16T01:29:29.692Z,101447.80
2018-10-16T01:32:00.661Z,101447.80
2018-10-16T01:34:31.433Z,101451.30
2018-10-16T01:37:02.065Z,101450.36
2018-10-16T01:39:32.799Z,101453.77
2018-10-16T01:42:03.437Z,101453.94
2018-10-16T01:44:35.167Z,101457.25
2018-10-16T01:47:06.025Z,101460.39
2018-10-16T01:49:37.379Z,101465.80
2018-10-16T01:52:08.079Z,101462.08
2018-10-16T01:54:38.717Z,101465.96
2018-10-16T01:57:09.461Z,101457.88
2018-10-16T01:59:40.445Z,101460.23
2018-10-16T02:02:11.113Z,101461.42
2018-10-16T02:04:41.811Z,101456.44
2018-10-16T02:07:13.047Z,101460.03
2018-10-16T02:09:44.563Z,101456.63
2018-10-16T02:12:15.217Z,101461.56
2018-10-16T02:14:45.940Z,101458.59
2018-10-16T02:17:16.579Z,101458.00
2018-10-16T02:19:47.762Z,101464.73
2018-10-16T02:22:18.558Z,101463.39
2018-10-16T02:24:49.184Z,101466.39
2018-10-16T02:27:19.891Z,101463.25
2018-10-16T02:29:50.625Z,101468.69
2018-10-16T02:32:21.287Z,101472.90
2018-10-16T02:34:52.011Z,101466.08
2018-10-16T02:37:22.675Z,101469.11
2018-10-16T02:39:53.360Z,101468.98
2018-10-16T02:42:24.028Z,101473.80
2018-10-16T02:44:54.688Z,101462.47
2018-10-16T02:47:26.502Z,101462.47
2018-10-16T02:49:57.146Z,101475.59
2018-10-16T02:52:27.831Z,101476.25
2018-10-16T02:54:59.100Z,101474.52
2018-10-16T02:57:29.800Z,101473.92
2018-10-16T03:00:00.769Z,101477.28
2018-10-16T03:02:31.516Z,101483.22
2018-10-16T03:05:02.574Z,101479.02
2018-10-16T03:07:33.233Z,101486.12
2018-10-16T03:10:04.073Z,101476.70
2018-10-16T03:12:34.674Z,101481.11
2018-10-16T03:15:06.273Z,101481.23
2018-10-16T03:17:36.916Z,101478.47
2018-10-16T03:20:07.837Z,101479.34
2018-10-16T03:22:38.776Z,101473.34
2018-10-16T03:25:12.023Z,101471.19
2018-10-16T03:27:42.953Z,101470.62
2018-10-16T03:30:13.961Z,101474.86
2018-10-16T03:32:44.675Z,101473.47
2018-10-16T03:35:15.352Z,101475.94
2018-10-16T03:37:46.006Z,101474.13
2018-10-16T03:40:16.776Z,101470.97
2018-10-16T03:42:47.414Z,101473.39
2018-10-16T03:45:18.100Z,101474.28
2018-10-16T03:47:48.754Z,101482.06
2018-10-16T03:50:19.443Z,101482.83
2018-10-16T03:52:50.102Z,101483.41
2018-10-16T03:55:21.121Z,101476.98
2018-10-16T03:57:52.058Z,101477.36
2018-10-16T04:00:22.712Z,101477.74
2018-10-16T04:02:53.892Z,101484.33
2018-10-16T04:05:24.546Z,101483.09
2018-10-16T04:07:55.233Z,101479.21
2018-10-16T04:10:25.941Z,101487.02
2018-10-16T04:12:56.664Z,101494.95
2018-10-16T04:15:27.353Z,101493.00
2018-10-16T04:17:58.472Z,101493.08
2018-10-16T04:20:29.145Z,101500.84
2018-10-16T04:22:59.837Z,101503.84
2018-10-16T04:25:30.399Z,101508.47
2018-10-16T04:28:01.217Z,101501.11
2018-10-16T04:30:31.927Z,101506.81
2018-10-16T04:33:02.549Z,101502.77
2018-10-16T04:35:33.190Z,101507.34
2018-10-16T04:38:03.841Z,101501.87
2018-10-16T04:40:34.623Z,101499.31
2018-10-16T04:43:06.268Z,101503.75
2018-10-16T04:45:36.808Z,101505.45
2018-10-16T04:48:07.920Z,101502.84
2018-10-16T04:50:38.872Z,101509.64
2018-10-16T04:53:09.526Z,101510.70
2018-10-16T04:55:40.537Z,101514.97
2018-10-16T04:58:11.213Z,101518.59
2018-10-16T05:00:41.858Z,101520.14
2018-10-16T05:03:12.517Z,101523.14
2018-10-16T05:05:43.193Z,101524.87
2018-10-16T05:08:13.858Z,101533.04
2018-10-16T05:10:44.485Z,101530.92
2018-10-16T05:13:15.248Z,101543.21
2018-10-16T05:15:45.838Z,101547.41
2018-10-16T05:18:16.479Z,101546.22
2018-10-16T05:20:47.104Z,101547.41
2018-10-16T05:23:17.805Z,101545.94
2018-10-16T05:25:48.451Z,101542.77
2018-10-16T05:28:19.118Z,101541.64
2018-10-16T05:30:50.125Z,101548.14
2018-10-16T05:33:20.791Z,101545.28
2018-10-16T05:35:52.077Z,101544.26
2018-10-16T05:38:23.269Z,101544.72
2018-10-16T05:40:54.047Z,101550.12
2018-10-16T05:43:24.938Z,101548.30
2018-10-16T05:45:55.570Z,101550.25
2018-10-16T05:48:26.180Z,101551.45
2018-10-16T05:50:56.942Z,101554.30
2018-10-16T05:53:27.509Z,101550.52
2018-10-16T05:56:06.342Z,101552.34
2018-10-16T05:58:37.401Z,101552.71
2018-10-16T06:01:08.064Z,101550.83
2018-10-16T06:03:38.711Z,101553.83
2018-10-16T06:06:09.898Z,101558.76
2018-10-16T06:08:41.179Z,101555.92
2018-10-16T06:11:11.784Z,101562.67
2018-10-16T06:13:42.568Z,101552.36
2018-10-16T06:16:13.140Z,101548.85
2018-10-16T06:18:43.802Z,101555.91
2018-10-16T06:21:14.451Z,101558.91
2018-10-16T06:23:45.103Z,101562.70
2018-10-16T06:26:16.145Z,101563.34
2018-10-16T06:28:46.755Z,101574.61
2018-10-16T06:31:17.820Z,101578.52
2018-10-16T06:33:48.539Z,101581.16
2018-10-16T06:36:19.133Z,101581.92
2018-10-16T06:38:50.352Z,101589.02
2018-10-16T06:41:21.135Z,101592.47
2018-10-16T06:43:51.712Z,101593.82
2018-10-16T06:46:22.339Z,101592.30
2018-10-16T06:48:53.716Z,101594.33
2018-10-16T06:51:24.234Z,101593.93
2018-10-16T06:53:54.849Z,101598.28
2018-10-16T06:56:25.553Z,101600.95
2018-10-16T06:58:56.717Z,101602.84
2018-10-16T07:01:27.921Z,101606.79
2018-10-16T07:03:58.609Z,101617.27
2018-10-16T07:06:29.279Z,101624.02
2018-10-16T07:09:00.267Z,101625.38
2018-10-16T07:11:31.118Z,101625.38
2018-10-16T07:14:01.776Z,101624.62
2018-10-16T07:16:32.577Z,101631.11
2018-10-16T07:19:03.311Z,101628.30
2018-10-16T07:21:34.128Z,101631.07
2018-10-16T07:24:05.062Z,101633.30
2018-10-16T07:26:35.611Z,101639.95
2018-10-16T07:29:07.078Z,101645.42
2018-10-16T07:31:37.809Z,101652.95
2018-10-16T07:34:08.459Z,101661.20
2018-10-16T07:36:39.641Z,101656.44
2018-10-16T07:39:12.531Z,101657.84
2018-10-16T07:41:43.614Z,101660.55
2018-10-16T07:44:14.329Z,101661.39
2018-10-16T07:46:45.009Z,101662.51
2018-10-16T07:49:15.674Z,101657.53
2018-10-16T07:51:46.309Z,101661.69
2018-10-16T07:54:17.351Z,101659.71
2018-10-16T07:56:48.256Z,101661.48
2018-10-16T07:59:19.074Z,101655.24
2018-10-16T08:01:49.714Z,101659.42
2018-10-16T08:04:20.407Z,101657.98
2018-10-16T08:06:51.037Z,101663.09
2018-10-16T08:09:21.664Z,101662.48
2018-10-16T08:11:52.801Z,101663.89
2018-10-16T08:14:23.480Z,101663.66
2018-10-16T08:16:54.087Z,101667.31
2018-10-16T08:19:24.786Z,101670.66
2018-10-16T08:21:55.738Z,101673.70
2018-10-16T08:24:26.823Z,101673.90
2018-10-16T08:26:57.966Z,101684.41
2018-10-16T08:29:28.590Z,101684.81
2018-10-16T08:31:59.289Z,101686.88
2018-10-16T08:34:30.151Z,101692.45
2018-10-16T08:37:01.325Z,101693.91
2018-10-16T08:39:34.157Z,101695.72
2018-10-16T08:42:30.028Z,101691.15
2018-10-16T08:45:26.888Z,101698.39
2018-10-16T08:48:33.294Z,101696.58
2018-10-16T08:51:54.015Z,101698.09
2018-10-16T08:54:24.834Z,101701.11
2018-10-16T08:56:55.477Z,101702.25
2018-10-16T08:59:26.266Z,101704.02
2018-10-16T09:01:56.981Z,101703.20
2018-10-16T09:04:28.108Z,101705.04
2018-10-16T09:06:58.765Z,101700.31
2018-10-16T09:09:29.606Z,101696.75
2018-10-16T09:12:00.891Z,101702.83
2018-10-16T09:14:31.903Z,101699.68
2018-10-16T09:17:02.518Z,101702.44
2018-10-16T09:19:33.591Z,101708.34
2018-10-16T09:22:04.296Z,101708.34
2018-10-16T09:24:35.050Z,101708.41
2018-10-16T09:27:05.667Z,101706.08
2018-10-16T09:29:36.311Z,101703.77
2018-10-16T09:32:07.222Z,101707.70
2018-10-16T09:34:37.849Z,101702.94
2018-10-16T09:37:08.585Z,101713.62
2018-10-16T09:39:39.271Z,101704.22
2018-10-16T09:42:09.838Z,101708.36
2018-10-16T09:44:40.819Z,101708.47
2018-10-16T09:47:11.514Z,101709.31
2018-10-16T09:49:42.225Z,101712.23
2018-10-16T09:52:12.806Z,101709.73
2018-10-16T09:54:43.418Z,101713.48
2018-10-16T09:57:14.126Z,101712.70
2018-10-16T09:59:44.815Z,101708.14
2018-10-16T10:02:15.487Z,101710.66
2018-10-16T10:04:46.146Z,101711.79
2018-10-16T10:07:16.860Z,101706.44
2018-10-16T10:09:47.493Z,101706.44
2018-10-16T10:12:18.279Z,101706.52
2018-10-16T10:14:49.020Z,101706.34
2018-10-16T10:17:19.724Z,101710.60
2018-10-16T10:19:50.384Z,101713.03
2018-10-16T10:22:21.147Z,101713.82
2018-10-16T10:24:52.061Z,101715.44
2018-10-16T10:27:22.795Z,101712.22
2018-10-16T10:29:53.512Z,101713.34
2018-10-16T10:32:24.678Z,101708.22
2018-10-16T10:34:55.349Z,101711.79
2018-10-16T10:37:25.948Z,101708.00
2018-10-16T10:39:57.538Z,101707.20
2018-10-16T10:42:28.289Z,101713.53
2018-10-16T10:44:58.954Z,101715.15
2018-10-16T10:47:29.602Z,101714.08
2018-10-16T10:50:00.379Z,101710.62
2018-10-16T10:52:30.859Z,101712.81
2018-10-16T10:55:01.521Z,101708.52
2018-10-16T10:57:32.621Z,101713.73
2018-10-16T11:00:03.314Z,101707.25
2018-10-16T11:02:33.946Z,101714.64
2018-10-16T11:05:04.562Z,101705.39
2018-10-16T11:07:35.266Z,101706.20
2018-10-16T11:10:06.316Z,101703.45
2018-10-16T11:12:37.255Z,101700.12
2018-10-16T11:15:08.935Z,101706.66
2018-10-16T11:17:40.264Z,101705.30
2018-10-16T11:20:13.323Z,101701.73
2018-10-16T11:22:44.005Z,101708.58
2018-10-16T11:25:14.989Z,101716.46
2018-10-16T11:27:46.264Z,101709.94
2018-10-16T11:30:17.147Z,101706.93
2018-10-16T11:32:47.735Z,101706.14
2018-10-16T11:35:18.340Z,101707.50
2018-10-16T11:37:48.993Z,101710.55
2018-10-16T11:40:19.623Z,101714.13
2018-10-16T11:42:50.624Z,101712.78
2018-10-16T11:45:21.305Z,101718.26
2018-10-16T11:47:51.996Z,101717.98
2018-10-16T11:50:26.772Z,101721.02
2018-10-16T11:53:00.910Z,101715.85
2018-10-16T11:55:32.196Z,101715.87
2018-10-16T11:58:02.956Z,101717.79
2018-10-16T12:00:33.650Z,101714.51
2018-10-16T12:03:04.248Z,101713.98
2018-10-16T12:05:35.025Z,101715.63
2018-10-16T12:08:05.742Z,101714.52
2018-10-16T12:10:36.363Z,101714.25
2018-10-16T12:13:07.807Z,101715.65
2018-10-16T12:15:39.740Z,101721.13
2018-10-16T12:18:15.364Z,101715.16
2018-10-16T12:21:21.290Z,101719.52
2018-10-16T12:23:52.485Z,101718.73
2018-10-16T12:26:23.639Z,101714.67
2018-10-16T12:28:54.684Z,101706.75
2018-10-16T12:31:25.804Z,101706.78
2018-10-16T12:33:56.490Z,101701.66
2018-10-16T12:36:27.107Z,101707.13
2018-10-16T12:38:57.770Z,101705.51
2018-10-16T12:41:28.664Z,101709.88
2018-10-16T12:43:59.333Z,101704.42
2018-10-16T12:46:30.027Z,101710.42
2018-10-16T12:49:00.653Z,101709.31
2018-10-16T12:51:31.303Z,101710.95
2018-10-16T12:54:02.038Z,101709.05
2018-10-16T12:56:32.632Z,101704.42
2018-10-16T12:59:03.320Z,101705.79
2018-10-16T13:01:34.090Z,101707.97
2018-10-16T13:04:04.979Z,101715.35
2018-10-16T13:06:35.738Z,101711.81
2018-10-16T13:09:08.756Z,101709.38
2018-10-16T13:11:39.644Z,101711.31
2018-10-16T13:14:10.337Z,101706.38
2018-10-16T13:16:41.333Z,101704.21
2018-10-16T13:19:12.032Z,101698.50
2018-10-16T13:21:42.992Z,101705.05
2018-10-16T13:24:13.650Z,101704.80
2018-10-16T13:26:44.240Z,101703.69
2018-10-16T13:29:14.967Z,101703.17
2018-10-16T13:31:45.496Z,101704.00
2018-10-16T13:34:16.223Z,101699.62
2018-10-16T13:36:46.868Z,101698.28
2018-10-16T13:39:17.499Z,101696.65
2018-10-16T13:41:48.386Z,101689.55
2018-10-16T13:44:18.992Z,101692.30
2018-10-16T13:46:49.652Z,101698.56
2018-10-16T13:49:20.308Z,101698.30
2018-10-16T13:51:50.951Z,101705.39
2018-10-16T13:54:21.653Z,101707.83
2018-10-16T13:56:52.309Z,101713.84
2018-10-16T13:59:22.914Z,101716.84
2018-10-16T14:01:53.591Z,101720.64
2018-10-16T14:04:24.543Z,101711.88
2018-10-16T14:06:55.218Z,101711.34
2018-10-16T14:09:25.819Z,101712.98
2018-10-16T14:11:56.474Z,101708.88
2018-10-16T14:14:27.120Z,101714.05
2018-10-16T14:16:57.846Z,101715.95
2018-10-16T14:19:28.479Z,101717.08
2018-10-16T14:21:59.426Z,101722.25
2018-10-16T14:24:31.109Z,101714.86
2018-10-16T14:27:01.876Z,101709.97
2018-10-16T14:29:32.536Z,101715.14
2018-10-16T14:32:03.284Z,101705.34
2018-10-16T14:34:34.168Z,101707.79
2018-10-16T14:37:04.900Z,101706.14
2018-10-16T14:39:35.542Z,101711.05
2018-10-16T14:42:07.192Z,101713.20
2018-10-16T14:44:37.868Z,101708.02
2018-10-16T14:47:08.821Z,101713.45
2018-10-16T14:49:40.383Z,101715.61
2018-10-16T14:52:14.778Z,101709.05
2018-10-16T14:54:45.388Z,101718.33
2018-10-16T14:57:16.085Z,101717.23
2018-10-16T14:59:46.797Z,101710.12
2018-10-16T15:02:17.470Z,101713.33
2018-10-16T15:04:48.096Z,101710.32
2018-10-16T15:07:18.774Z,101703.77
2018-10-16T15:09:49.467Z,101705.92
2018-10-16T15:12:31.137Z,101708.94
2018-10-16T15:15:02.977Z,101705.90
2018-10-16T15:17:33.720Z,101707.22
2018-10-16T15:20:04.740Z,101706.95
2018-10-16T15:22:35.302Z,101705.86
2018-10-16T15:25:06.946Z,101717.02
2018-10-16T15:27:37.644Z,101717.02
2018-10-16T15:30:10.018Z,101714.23
2018-10-16T15:35:12.272Z,101711.89
2018-10-16T15:37:42.993Z,101711.55
2018-10-16T15:40:13.840Z,101701.19
2018-10-16T15:42:44.373Z,101706.33
2018-10-16T15:45:15.121Z,101701.39
2018-10-16T15:47:46.582Z,101700.52
2018-10-16T15:50:17.316Z,101701.28
2018-10-16T15:52:49.067Z,101705.36
2018-10-16T15:55:19.816Z,101707.34
2018-10-16T15:57:50.685Z,101709.62
2018-10-16T16:00:21.162Z,101716.30
2018-10-16T16:02:51.878Z,101715.09
2018-10-16T16:05:22.501Z,101715.83
2018-10-16T16:07:53.246Z,101718.73
2018-10-16T16:10:23.971Z,101722.77
2018-10-16T16:12:54.683Z,101733.70
2018-10-16T16:15:25.311Z,101732.92
2018-10-16T16:17:56.005Z,101737.26
2018-10-16T16:20:26.659Z,101740.03
2018-10-16T16:22:57.383Z,101737.41
2018-10-16T16:25:28.460Z,101743.00
2018-10-16T16:27:59.237Z,101742.89
2018-10-16T16:30:30.232Z,101739.82
2018-10-16T16:33:00.942Z,101749.34
2018-10-16T16:35:31.913Z,101749.08
2018-10-16T16:38:02.618Z,101748.73
2018-10-16T16:40:33.257Z,101748.05
2018-10-16T16:43:03.907Z,101750.97
2018-10-16T16:45:34.576Z,101752.06
2018-10-16T16:48:05.263Z,101753.97
2018-10-16T16:50:35.984Z,101754.16
2018-10-16T16:53:06.980Z,101754.06
2018-10-16T16:55:37.608Z,101759.14
2018-10-16T16:58:08.441Z,101752.02
2018-10-16T17:00:38.983Z,101749.00
2018-10-16T17:03:09.640Z,101752.53
2018-10-16T17:05:40.241Z,101754.95
2018-10-16T17:08:10.998Z,101760.97
2018-10-16T17:10:41.644Z,101762.59
2018-10-16T17:13:12.379Z,101766.84
2018-10-16T17:15:43.214Z,101761.86
2018-10-16T17:18:14.066Z,101763.69
2018-10-16T17:20:45.748Z,101763.61
2018-10-16T17:23:16.572Z,101761.36
2018-10-16T17:25:47.937Z,101762.69
2018-10-16T17:28:18.514Z,101762.39
2018-10-16T17:30:49.232Z,101766.33
2018-10-16T17:33:19.956Z,101773.97
2018-10-16T17:35:50.649Z,101779.98
2018-10-16T17:38:21.891Z,101779.61
2018-10-16T17:40:53.182Z,101780.08
2018-10-16T17:43:27.497Z,101784.29
2018-10-16T17:45:58.225Z,101776.88
2018-10-16T17:48:29.277Z,101776.78
2018-10-16T17:50:59.974Z,101782.47
2018-10-16T17:53:31.043Z,101780.77
2018-10-16T17:56:01.794Z,101785.14
2018-10-16T17:58:32.695Z,101784.08
2018-10-16T18:01:03.346Z,101785.91
2018-10-16T18:03:34.054Z,101781.88
2018-10-16T18:06:05.559Z,101781.58
2018-10-16T18:08:36.947Z,101781.48
2018-10-16T18:11:08.181Z,101783.86
2018-10-16T18:13:38.913Z,101783.27
2018-10-16T18:16:09.609Z,101783.77
2018-10-16T18:18:40.296Z,101778.80
2018-10-16T18:21:11.012Z,101787.00
2018-10-16T18:23:41.666Z,101787.00
2018-10-16T18:26:12.458Z,101788.41
2018-10-16T18:28:43.285Z,101793.88
2018-10-16T18:31:13.929Z,101797.77
2018-10-16T18:33:44.728Z,101797.20
2018-10-16T18:36:15.407Z,101805.93
2018-10-16T18:38:46.186Z,101804.64
2018-10-16T18:41:16.898Z,101806.80
2018-10-16T18:43:47.648Z,101807.85
2018-10-16T18:46:18.416Z,101803.69
2018-10-16T18:48:49.142Z,101804.13
2018-10-16T18:51:19.833Z,101807.45
2018-10-16T18:53:50.590Z,101803.23
2018-10-16T18:56:21.909Z,101800.21
2018-10-16T18:58:52.664Z,101801.17
2018-10-16T19:01:23.365Z,101796.80
2018-10-16T19:03:54.066Z,101800.77
2018-10-16T19:06:24.898Z,101789.87
2018-10-16T19:08:55.568Z,101789.52
2018-10-16T19:11:26.281Z,101788.81
2018-10-16T19:13:57.148Z,101784.50
2018-10-16T19:16:27.774Z,101793.69
2018-10-16T19:18:58.735Z,101786.34
2018-10-16T19:21:29.444Z,101792.03
2018-10-16T19:24:00.221Z,101795.09
2018-10-16T19:26:31.048Z,101801.91
2018-10-16T19:29:01.697Z,101792.72
2018-10-16T19:31:32.886Z,101792.52
2018-10-16T19:34:03.663Z,101798.98
2018-10-16T19:36:34.444Z,101804.00
2018-10-16T19:39:06.074Z,101807.58
2018-10-16T19:41:36.748Z,101808.53
2018-10-16T19:44:07.498Z,101809.53
2018-10-16T19:46:38.218Z,101811.51
2018-10-16T19:49:09.175Z,101803.63
2018-10-16T19:51:39.970Z,101808.14
2018-10-16T19:54:10.691Z,101802.86
2018-10-16T19:56:41.691Z,101796.92
2018-10-16T19:59:13.658Z,101800.20
2018-10-16T20:01:44.315Z,101801.97
2018-10-16T20:04:15.070Z,101804.11
2018-10-16T20:06:45.769Z,101805.77
2018-10-16T20:09:16.597Z,101807.69
2018-10-16T20:11:47.349Z,101811.53
2018-10-16T20:14:18.080Z,101806.23
2018-10-16T20:16:48.664Z,101807.48
2018-10-16T20:19:19.742Z,101804.41
2018-10-16T20:21:50.498Z,101796.27
2018-10-16T20:24:21.254Z,101805.81
2018-10-16T20:26:51.958Z,101807.59
2018-10-16T20:29:22.784Z,101806.52
2018-10-16T20:31:53.509Z,101808.84
2018-10-16T20:34:24.162Z,101806.58
2018-10-16T20:36:55.254Z,101798.39
2018-10-16T20:39:26.070Z,101800.16
2018-10-16T20:41:57.777Z,101798.11
2018-10-16T20:44:28.405Z,101795.53
2018-10-16T20:46:59.510Z,101792.53
2018-10-16T20:49:30.303Z,101786.58
2018-10-16T20:52:01.378Z,101787.72
2018-10-16T20:54:32.084Z,101781.88
2018-10-16T20:57:02.791Z,101781.37
2018-10-16T20:59:33.594Z,101777.25
2018-10-16T21:02:04.340Z,101778.69
2018-10-16T21:04:35.072Z,101780.62
2018-10-16T21:07:05.923Z,101780.20
2018-10-16T21:09:36.459Z,101778.72
2018-10-16T21:12:07.271Z,101778.80
2018-10-16T21:14:37.894Z,101775.84
2018-10-16T21:17:08.516Z,101776.32
2018-10-16T21:19:39.209Z,101778.45
2018-10-16T21:22:10.069Z,101782.78
2018-10-16T21:24:40.687Z,101780.66
2018-10-16T21:27:12.624Z,101779.05
2018-10-16T21:29:43.300Z,101778.19
2018-10-16T21:32:14.044Z,101774.66
2018-10-16T21:34:44.790Z,101774.05
2018-10-16T21:37:16.005Z,101776.97
2018-10-16T21:39:46.753Z,101773.09
2018-10-16T21:42:17.753Z,101777.36
2018-10-16T21:44:48.424Z,101779.99
2018-10-16T21:47:19.104Z,101777.83
2018-10-16T21:49:50.618Z,101778.10
2018-10-16T21:52:21.260Z,101775.22
2018-10-16T21:57:22.657Z,101784.89
2018-10-16T21:59:53.306Z,101781.23
2018-10-16T22:02:41.494Z,101786.91
2018-10-16T22:05:12.650Z,101785.56
2018-10-16T22:07:43.622Z,101787.07
2018-10-16T22:10:14.417Z,101784.19
2018-10-16T22:12:46.935Z,101790.36
2018-10-16T22:15:18.264Z,101786.31
2018-10-16T22:17:49.365Z,101789.45
2018-10-16T22:20:20.138Z,101785.23
2018-10-16T22:22:50.809Z,101790.13
2018-10-16T22:25:21.612Z,101786.74
2018-10-16T22:27:52.365Z,101787.82
2018-10-16T22:30:23.437Z,101785.70
2018-10-16T22:32:54.113Z,101783.89
2018-10-16T22:35:24.810Z,101790.14
2018-10-16T22:37:55.440Z,101786.02
2018-10-16T22:40:26.116Z,101785.63
2018-10-16T22:42:56.971Z,101782.85
2018-10-16T22:45:27.674Z,101779.11
2018-10-16T22:47:59.237Z,101782.78
2018-10-16T22:50:30.443Z,101773.98
2018-10-16T22:53:01.172Z,101770.98
2018-10-16T22:55:34.838Z,101770.70
2018-10-16T22:58:05.593Z,101762.30
2018-10-16T23:00:36.359Z,101765.87
2018-10-16T23:03:07.131Z,101762.71
2018-10-16T23:05:37.817Z,101763.31
2018-10-16T23:08:09.609Z,101754.30
2018-10-16T23:10:40.861Z,101754.30
2018-10-16T23:13:12.144Z,101762.13
2018-10-16T23:15:44.005Z,101765.57
2018-10-16T23:18:15.888Z,101761.83
2018-10-16T23:20:51.167Z,101757.55
2018-10-16T23:23:22.108Z,101759.27
2018-10-16T23:25:54.073Z,101765.33
2018-10-16T23:28:25.207Z,101759.13
2018-10-16T23:30:56.617Z,101761.59
2018-10-16T23:33:29.516Z,101766.18
2018-10-16T23:36:01.685Z,101762.27
2018-10-16T23:38:33.020Z,101766.27
2018-10-16T23:41:04.251Z,101761.61
2018-10-16T23:43:36.446Z,101760.17
2018-10-16T23:46:11.572Z,101764.47
2018-10-16T23:48:44.616Z,101765.70
2018-10-16T23:51:15.825Z,101701.00
2018-10-16T23:53:47.674Z,101761.58
2018-10-16T23:56:18.615Z,101762.19
2018-10-16T23:58:50.848Z,101763.00
